createdAt,value
2018-08-03T00:07:36.329Z,46.04
2018-08-03T00:10:06.673Z,46.79
2018-08-03T00:12:35.530Z,44.97
2018-08-03T00:15:03.823Z,46.21
2018-08-03T00:17:33.227Z,45.48
2018-08-03T00:20:01.590Z,47.63
2018-08-03T00:22:29.725Z,48.45
2018-08-03T00:24:57.839Z,47.64
2018-08-03T00:44:42.502Z,48.55
2018-08-03T00:47:11.771Z,50.15
2018-08-03T00:49:40.017Z,49.00
2018-08-03T01:09:26.848Z,52.91
2018-08-03T01:11:55.267Z,52.97
2018-08-03T01:14:24.044Z,53.48
2018-08-03T01:34:06.892Z,54.46
2018-08-03T01:36:35.857Z,54.67
2018-08-03T01:39:05.666Z,54.84
2018-08-03T01:41:34.090Z,54.43
2018-08-03T01:44:02.286Z,55.03
2018-08-03T01:46:30.459Z,55.00
2018-08-03T01:48:58.651Z,55.81
2018-08-03T01:51:26.831Z,56.58
2018-08-03T01:53:55.388Z,54.88
2018-08-03T01:56:23.563Z,53.72
2018-08-03T01:58:51.682Z,54.93
2018-08-03T02:01:19.890Z,56.37
2018-08-03T02:03:48.848Z,56.22
2018-08-03T02:06:17.579Z,56.29
2018-08-03T02:08:45.727Z,56.68
2018-08-03T02:11:13.974Z,55.04
2018-08-03T02:30:57.566Z,55.98
2018-08-03T02:33:26.963Z,57.75
2018-08-03T02:53:09.934Z,59.14
2018-08-03T02:55:38.060Z,57.62
2018-08-03T02:58:07.245Z,58.09
2018-08-03T03:00:35.543Z,57.86
2018-08-03T03:20:19.006Z,60.42
2018-08-03T03:22:47.114Z,58.32
2018-08-03T03:25:15.253Z,59.95
2018-08-03T03:27:43.375Z,59.99
2018-08-03T03:30:11.550Z,59.49
2018-08-03T03:32:39.737Z,61.01
2018-08-03T03:35:08.878Z,60.83
2018-08-03T03:37:37.169Z,62.53
2018-08-03T03:40:05.515Z,62.00
2018-08-03T03:42:33.643Z,61.62
2018-08-03T03:45:01.967Z,61.11
2018-08-03T03:47:33.426Z,61.15
2018-08-03T03:50:01.579Z,60.03
2018-08-03T03:52:29.673Z,58.73
2018-08-03T03:54:57.790Z,58.25
2018-08-03T03:57:27.536Z,58.40
2018-08-03T03:59:56.431Z,59.46
2018-08-03T04:02:24.491Z,58.68
2018-08-03T04:04:52.636Z,60.03
2018-08-03T04:07:20.739Z,62.12
2018-08-03T04:09:48.822Z,59.81
2018-08-03T04:12:16.961Z,60.18
2018-08-03T04:14:45.691Z,58.77
2018-08-03T04:17:13.809Z,59.09
2018-08-03T04:19:41.940Z,58.44
2018-08-03T04:22:10.177Z,57.73
2018-08-03T04:24:41.823Z,59.61
2018-08-03T04:27:10.051Z,61.29
2018-08-03T04:29:38.594Z,60.82
2018-08-03T04:32:07.075Z,61.36
2018-08-03T04:34:35.179Z,60.32
2018-08-03T04:37:03.306Z,61.05
2018-08-03T04:39:31.882Z,61.04
2018-08-03T04:41:59.997Z,61.05
2018-08-03T04:44:30.586Z,63.21
2018-08-03T04:46:58.771Z,62.39
2018-08-03T04:49:26.942Z,62.43
2018-08-03T04:51:57.415Z,59.18
2018-08-03T04:54:27.227Z,59.93
2018-08-03T04:56:56.177Z,60.99
2018-08-03T04:59:24.453Z,61.12
2018-08-03T05:01:53.150Z,63.05
2018-08-03T05:04:21.275Z,61.30
2018-08-03T05:06:49.860Z,61.57
2018-08-03T05:09:18.011Z,61.21
2018-08-03T05:11:46.195Z,61.76
2018-08-03T05:14:16.583Z,60.98
2018-08-03T05:16:44.722Z,60.25
2018-08-03T05:19:12.855Z,60.80
2018-08-03T05:21:41.046Z,60.38
2018-08-03T05:24:11.348Z,59.91
2018-08-03T05:58:25.946Z,58.06
2018-08-03T06:00:55.957Z,59.09
2018-08-03T06:03:27.336Z,59.24
2018-08-03T06:06:14.752Z,59.25
2018-08-03T06:08:56.038Z,58.54
2018-08-03T06:11:24.266Z,58.52
2018-08-03T06:13:53.748Z,58.37
2018-08-03T06:16:22.147Z,58.24
2018-08-03T06:18:50.215Z,57.84
2018-08-03T06:21:19.246Z,57.56
2018-08-03T06:23:47.812Z,58.47
2018-08-03T06:26:16.134Z,57.58
2018-08-03T06:28:44.434Z,58.07
2018-08-03T06:31:12.599Z,58.32
2018-08-03T06:33:40.662Z,58.12
2018-08-03T06:36:09.444Z,57.91
2018-08-03T06:38:37.622Z,57.07
2018-08-03T06:41:07.232Z,56.33
2018-08-03T06:43:35.665Z,56.82
2018-08-03T06:46:04.991Z,56.52
2018-08-03T06:48:35.995Z,56.36
2018-08-03T06:51:30.540Z,56.17
2018-08-03T06:54:01.046Z,56.14
2018-08-03T06:56:29.397Z,55.91
2018-08-03T06:58:58.368Z,55.83
2018-08-03T07:01:26.474Z,55.51
2018-08-03T07:03:54.677Z,55.43
2018-08-03T07:06:22.770Z,55.95
2018-08-03T07:08:51.309Z,55.54
2018-08-03T07:11:20.166Z,55.89
2018-08-03T07:13:49.251Z,55.56
2018-08-03T07:16:17.745Z,55.04
2018-08-03T07:18:46.707Z,54.61
2018-08-03T07:21:15.882Z,54.27
2018-08-03T07:23:44.026Z,54.84
2018-08-03T07:26:15.098Z,53.77
2018-08-03T07:28:44.210Z,54.11
2018-08-03T07:31:14.467Z,53.41
2018-08-03T07:33:42.770Z,52.73
2018-08-03T07:36:10.885Z,53.15
2018-08-03T07:38:40.771Z,53.15
2018-08-03T07:41:09.793Z,52.51
2018-08-03T07:43:38.395Z,52.43
2018-08-03T07:46:08.801Z,52.72
2018-08-03T07:48:38.171Z,53.01
2018-08-03T07:51:06.546Z,51.58
2018-08-03T07:53:34.731Z,51.59
2018-08-03T07:56:04.026Z,51.44
2018-08-03T07:58:32.772Z,51.23
2018-08-03T08:01:01.402Z,51.75
2018-08-03T08:03:31.882Z,50.55
2018-08-03T08:06:01.429Z,51.40
2018-08-03T08:08:29.651Z,50.72
2018-08-03T08:10:58.010Z,50.36
2018-08-03T08:13:26.633Z,50.51
2018-08-03T08:15:54.717Z,51.16
2018-08-03T08:18:23.557Z,50.19
2018-08-03T08:20:51.635Z,50.21
2018-08-03T08:23:19.732Z,49.56
2018-08-03T08:25:48.702Z,50.55
2018-08-03T08:28:17.387Z,49.39
2018-08-03T08:48:00.395Z,47.16
2018-08-03T08:50:30.106Z,46.62
2018-08-03T08:52:58.832Z,46.30
2018-08-03T08:55:27.772Z,45.91
2018-08-03T08:57:57.011Z,46.72
2018-08-03T09:00:25.151Z,46.23
2018-08-03T09:02:54.101Z,44.22
2018-08-03T09:05:22.208Z,44.00
2018-08-03T09:07:50.391Z,44.42
2018-08-03T09:10:19.355Z,43.91
2018-08-03T09:12:47.583Z,43.60
2018-08-03T09:15:15.676Z,43.73
2018-08-03T09:17:43.844Z,43.93
2018-08-03T09:20:12.549Z,42.39
2018-08-03T09:22:42.229Z,42.70
2018-08-03T09:25:10.526Z,41.99
2018-08-03T09:27:38.711Z,42.57
2018-08-03T09:30:08.433Z,42.07
2018-08-03T09:32:37.812Z,41.69
2018-08-03T09:35:07.016Z,42.06
2018-08-03T09:37:35.218Z,42.32
2018-08-03T09:40:05.200Z,41.15
2018-08-03T09:42:34.640Z,40.33
2018-08-03T09:45:03.387Z,39.83
2018-08-03T09:47:33.079Z,38.88
2018-08-03T09:50:02.100Z,39.79
2018-08-03T10:09:44.947Z,37.33
2018-08-03T10:12:13.240Z,36.03
2018-08-03T10:14:42.162Z,35.76
2018-08-03T10:17:11.639Z,36.01
2018-08-03T10:19:40.857Z,35.99
2018-08-03T10:39:23.030Z,35.66
2018-08-03T10:41:51.106Z,34.91
2018-08-03T10:44:19.215Z,35.24
2018-08-03T10:46:47.426Z,35.98
2018-08-03T10:49:15.515Z,35.69
2018-08-03T10:51:43.700Z,36.23
2018-08-03T10:54:11.932Z,35.63
2018-08-03T10:56:40.055Z,34.27
2018-08-03T10:59:09.039Z,33.22
2018-08-03T11:01:37.176Z,33.50
2018-08-03T11:04:05.377Z,34.12
2018-08-03T11:06:33.445Z,32.76
2018-08-03T11:09:01.747Z,34.20
2018-08-03T11:11:29.876Z,34.93
2018-08-03T11:13:58.024Z,33.82
2018-08-03T11:16:26.142Z,32.22
2018-08-03T11:36:12.458Z,29.80
2018-08-03T11:38:40.832Z,30.82
2018-08-03T11:41:09.075Z,29.98
2018-08-03T11:43:38.030Z,31.17
2018-08-03T11:46:06.426Z,29.73
2018-08-03T11:48:36.034Z,29.84
2018-08-03T12:08:18.845Z,24.22
2018-08-03T12:10:47.175Z,24.07
2018-08-03T12:13:16.126Z,23.60
2018-08-03T12:15:44.622Z,22.22
2018-08-03T12:18:15.256Z,21.26
2018-08-03T12:20:46.285Z,20.76
2018-08-03T12:23:16.102Z,20.87
2018-08-03T12:25:45.316Z,20.74
2018-08-03T12:28:13.738Z,19.47
2018-08-03T12:30:42.328Z,19.53
2018-08-03T12:33:11.464Z,18.81
2018-08-03T12:52:53.804Z,20.43
2018-08-03T12:55:21.941Z,21.97
2018-08-03T12:57:50.300Z,20.64
2018-08-03T13:00:18.853Z,22.56
2018-08-03T13:02:47.402Z,22.73
2018-08-03T13:05:16.612Z,20.97
2018-08-03T13:24:59.209Z,15.67
2018-08-03T13:27:27.429Z,16.63
2018-08-03T13:29:55.493Z,17.17
2018-08-03T13:32:23.567Z,19.10
2018-08-03T13:34:51.743Z,17.83
2018-08-03T13:37:19.917Z,15.55
2018-08-03T13:39:48.013Z,15.85
2018-08-03T13:42:16.118Z,16.86
2018-08-03T13:44:44.253Z,15.72
2018-08-03T13:47:12.450Z,16.05
2018-08-03T13:49:40.542Z,15.17
2018-08-03T13:52:10.265Z,14.92
2018-08-03T13:54:38.354Z,16.32
2018-08-03T13:57:06.473Z,14.87
2018-08-03T13:59:34.600Z,14.21
2018-08-03T14:02:14.334Z,14.08
2018-08-03T14:21:56.789Z,17.16
2018-08-03T14:41:39.825Z,19.10
2018-08-03T14:44:08.627Z,18.88
2018-08-03T14:46:37.422Z,16.29
2018-08-03T14:49:05.889Z,14.06
2018-08-03T14:51:33.996Z,16.19
2018-08-03T14:54:02.154Z,15.94
2018-08-03T14:56:30.409Z,16.02
2018-08-03T14:58:58.582Z,14.10
2018-08-03T15:01:26.907Z,15.33
2018-08-03T15:21:08.599Z,12.19
2018-08-03T15:23:36.802Z,10.30
2018-08-03T15:26:05.027Z,10.18
2018-08-03T15:28:33.215Z,11.04
2018-08-03T15:31:01.403Z,10.10
2018-08-03T15:33:29.503Z,11.20
2018-08-03T15:35:57.687Z,11.09
2018-08-03T15:55:40.512Z,11.32
2018-08-03T15:58:08.686Z,10.63
2018-08-03T16:00:36.854Z,10.78
2018-08-03T16:03:05.123Z,11.06
2018-08-03T16:05:33.368Z,11.75
2018-08-03T16:08:02.148Z,12.57
2018-08-03T16:10:31.124Z,13.01
2018-08-03T16:12:59.901Z,15.44
2018-08-03T16:15:28.095Z,16.20
2018-08-03T16:17:58.062Z,17.03
2018-08-03T16:21:16.675Z,17.34
2018-08-03T16:23:49.070Z,18.26
2018-08-03T16:26:17.903Z,18.58
2018-08-03T16:28:46.323Z,18.66
2018-08-03T16:31:14.477Z,18.58
2018-08-03T16:33:42.695Z,18.67
2018-08-03T16:36:12.154Z,18.69
2018-08-03T16:38:40.926Z,18.44
2018-08-03T16:41:09.135Z,19.55
2018-08-03T16:43:37.240Z,19.94
2018-08-03T16:46:06.227Z,18.92
2018-08-03T16:48:35.532Z,19.86
2018-08-03T16:51:04.219Z,19.10
2018-08-03T16:53:34.012Z,19.89
2018-08-03T17:13:16.798Z,20.28
2018-08-03T17:15:46.356Z,20.90
2018-08-03T17:18:14.641Z,20.47
2018-08-03T17:20:43.081Z,20.71
2018-08-03T17:23:11.886Z,21.24
2018-08-03T17:25:40.776Z,21.26
2018-08-03T17:28:09.195Z,20.93
2018-08-03T17:30:38.277Z,20.72
2018-08-03T17:33:06.987Z,21.07
2018-08-03T17:35:35.808Z,21.16
2018-08-03T17:38:04.050Z,21.32
2018-08-03T17:40:32.250Z,21.21
2018-08-03T17:43:01.534Z,21.47
2018-08-03T17:45:30.279Z,21.49
2018-08-03T17:47:58.840Z,21.18
2018-08-03T17:50:27.426Z,21.46
2018-08-03T17:52:55.789Z,22.10
2018-08-03T17:55:24.216Z,22.01
2018-08-03T17:57:53.397Z,21.90
2018-08-03T18:00:21.609Z,22.39
2018-08-03T18:02:50.050Z,22.62
2018-08-03T18:05:18.610Z,22.24
2018-08-03T18:25:04.191Z,23.70
2018-08-03T18:27:35.378Z,23.11
2018-08-03T18:30:05.002Z,22.92
2018-08-03T18:32:33.318Z,23.17
2018-08-03T18:35:01.977Z,23.33
2018-08-03T18:37:30.107Z,23.43
2018-08-03T18:40:03.712Z,23.47
2018-08-03T18:42:32.083Z,24.30
2018-08-03T18:45:00.310Z,24.20
2018-08-03T18:47:28.482Z,23.91
2018-08-03T18:49:56.688Z,25.53
2018-08-03T18:52:24.934Z,24.41
2018-08-03T19:12:07.807Z,26.31
2018-08-03T19:14:36.610Z,25.26
2018-08-03T19:17:05.021Z,26.28
2018-08-03T19:19:37.426Z,25.58
2018-08-03T19:39:20.631Z,27.20
2018-08-03T19:41:48.817Z,27.71
2018-08-03T19:44:16.977Z,27.92
2018-08-03T19:46:45.203Z,28.02
2018-08-03T19:49:13.412Z,28.29
2018-08-03T19:51:41.510Z,27.61
2018-08-03T19:54:09.711Z,28.08
2018-08-03T19:56:38.174Z,28.24
2018-08-03T19:59:06.508Z,28.65
2018-08-03T20:01:34.715Z,28.08
2018-08-03T20:21:17.306Z,29.18
2018-08-03T20:23:45.581Z,28.85
2018-08-03T20:26:13.781Z,29.45
2018-08-03T20:28:42.116Z,29.16
2018-08-03T20:31:10.246Z,29.36
2018-08-03T20:33:38.351Z,29.67
2018-08-03T20:36:06.560Z,29.89
2018-08-03T20:38:34.817Z,30.00
2018-08-03T20:41:03.317Z,29.68
2018-08-03T21:00:46.256Z,30.90
2018-08-03T21:03:14.444Z,31.10
2018-08-03T21:05:42.671Z,31.63
2018-08-03T21:08:11.109Z,32.50
2018-08-03T21:10:39.224Z,32.49
2018-08-03T21:13:07.306Z,33.49
2018-08-03T21:15:35.437Z,34.00
2018-08-03T21:18:03.917Z,32.89
2018-08-03T21:20:32.003Z,34.23
2018-08-03T21:40:14.687Z,34.39
2018-08-03T21:42:42.789Z,34.74
2018-08-03T22:02:25.304Z,31.79
2018-08-03T22:04:53.538Z,31.95
2018-08-03T22:07:21.730Z,32.55
2018-08-03T22:27:04.858Z,32.34
2018-08-03T22:29:33.080Z,31.51
2018-08-03T22:32:01.225Z,31.86
2018-08-03T22:34:29.464Z,32.15
2018-08-03T22:54:11.860Z,34.40
2018-08-03T23:13:55.216Z,35.53
2018-08-03T23:16:23.417Z,34.93
2018-08-03T23:18:51.582Z,35.23
2018-08-03T23:21:19.753Z,37.07
2018-08-03T23:41:03.045Z,38.40
2018-08-03T23:43:31.199Z,39.28
2018-08-03T23:45:59.294Z,39.12
2018-08-03T23:48:27.414Z,39.32
2018-08-03T23:50:55.779Z,39.85
2018-08-03T23:53:24.846Z,38.98
2018-08-03T23:55:53.012Z,39.69
2018-08-03T23:58:21.160Z,39.79
